Time;durP1;ratioP1;P1;durP2;ratioP2;P2;SDS_P1;SDS_P2;PMS_P1;PMS_P2;Temp;Humidity;BMP_temperature;BMP_pressure;BME280_temperature;BME280_humidity;BME280_pressure;Samples;Min_cycle;Max_cycle;Signal;HPM_P1;HPM_P2
2021/01/27 00:01:56;;;;;;;1999.90;999.90;;;;;;;3.79;71.97;101062.19;15611615;23;20137;-63
2021/01/27 00:09:28;;;;;;;1999.90;999.90;;;;;;;4.17;71.23;101057.09;15602755;28;20556;-63
2021/01/27 00:17:00;;;;;;;1999.90;999.90;;;;;;;4.09;70.74;101063.22;15597228;28;20092;-63
2021/01/27 00:24:32;;;;;;;1999.90;999.90;;;;;;;4.20;70.61;101049.09;15575180;28;20046;-61
2021/01/27 00:32:04;;;;;;;1999.90;999.90;;;;;;;3.96;70.85;101042.53;15608835;28;20044;-61
2021/01/27 00:39:36;;;;;;;1999.90;999.90;;;;;;;4.25;70.33;101037.16;15590386;28;20057;-62
2021/01/27 00:47:08;;;;;;;1999.90;999.90;;;;;;;4.13;70.26;101036.66;15591031;28;20507;-61
2021/01/27 00:54:40;;;;;;;1999.90;999.90;;;;;;;3.99;70.90;101047.50;15602245;28;20092;-62
2021/01/27 01:02:12;;;;;;;1999.90;999.90;;;;;;;4.16;70.16;101047.97;15580795;28;20037;-62
2021/01/27 01:09:51;;;;;;;1999.90;999.90;;;;;;;4.16;70.04;101047.97;15614677;28;20510;-61
2021/01/27 01:17:23;;;;;;;1999.90;999.90;;;;;;;4.30;69.56;101051.78;15601287;28;20046;-62
2021/01/27 01:24:55;;;;;;;1999.90;999.90;;;;;;;4.03;70.15;101041.13;15568157;28;20068;-62
2021/01/27 01:32:27;;;;;;;1999.90;999.90;;;;;;;4.00;69.91;101047.22;15618343;28;20056;-62
2021/01/27 01:39:59;;;;;;;1999.90;999.90;;;;;;;3.98;69.97;101032.03;15584130;28;20045;-62
2021/01/27 01:47:31;;;;;;;1999.90;999.90;;;;;;;3.71;70.78;101032.38;15577255;28;20814;-62
2021/01/27 01:55:03;;;;;;;1999.90;999.90;;;;;;;3.31;71.72;101028.56;15579726;28;20498;-62
2021/01/27 02:02:38;;;;;;;1999.90;999.90;;;;;;;3.12;71.55;101014.50;15561050;28;20045;-62
2021/01/27 02:10:13;;;;;;;1999.90;999.90;;;;;;;3.14;71.88;101033.56;15591099;28;20053;-62
2021/01/27 02:17:52;;;;;;;1999.90;999.90;;;;;;;3.33;71.34;101022.78;15616710;28;20391;-61
2021/01/27 02:25:49;;;;;;;1999.90;999.90;;;;;;;3.28;71.56;101015.34;15562125;28;20511;-60
2021/01/27 02:33:44;;;;;;;1999.90;999.90;;;;;;;2.98;71.91;101018.13;15577193;28;20051;-61
2021/01/27 02:41:24;;;;;;;1999.90;999.90;;;;;;;2.82;72.23;101025.56;15584552;28;20042;-62
2021/01/27 02:49:01;;;;;;;1999.90;999.90;;;;;;;2.89;71.58;101026.91;15597386;28;20045;-63
2021/01/27 02:56:40;;;;;;;1999.90;999.90;;;;;;;2.86;71.51;101030.22;15573054;28;20041;-61
2021/01/27 03:04:18;;;;;;;1999.90;999.90;;;;;;;2.96;71.00;101015.63;15575696;28;20409;-61
2021/01/27 03:11:50;;;;;;;1999.90;999.90;;;;;;;2.96;70.93;101012.06;15593188;28;20046;-63
2021/01/27 03:19:28;;;;;;;1999.90;999.90;;;;;;;2.85;71.37;101016.72;15608272;28;20495;-64
2021/01/27 03:27:04;;;;;;;1999.90;999.90;;;;;;;2.88;71.53;101014.25;15601727;28;20046;-64
2021/01/27 03:34:41;;;;;;;1999.90;999.90;;;;;;;2.76;71.47;101016.44;15587033;28;20056;-59
2021/01/27 03:42:18;;;;;;;1999.90;999.90;;;;;;;2.89;70.91;101023.34;15624870;28;20057;-61
2021/01/27 03:49:58;;;;;;;1999.90;999.90;;;;;;;2.82;71.19;101012.59;15586522;28;20038;-63
2021/01/27 03:57:35;;;;;;;1999.90;999.90;;;;;;;2.65;71.88;101009.25;15568855;28;20148;-60
2021/01/27 04:05:08;;;;;;;1999.90;999.90;;;;;;;2.66;71.14;101021.94;15585769;28;20061;-62
2021/01/27 04:12:40;;;;;;;1999.90;999.90;;;;;;;2.72;71.50;101009.00;15594543;28;20499;-61
2021/01/27 04:20:12;;;;;;;1999.90;999.90;;;;;;;2.81;71.70;101012.84;15603881;28;20045;-62
2021/01/27 04:27:45;;;;;;;1999.90;999.90;;;;;;;2.75;71.76;101012.03;15594735;28;20052;-58
2021/01/27 04:35:18;;;;;;;;;;;;;;;2.85;72.06;101009.28;15582596;28;20056;-59
2021/01/27 04:42:51;;;;;;;1999.90;999.90;;;;;;;2.82;72.22;101004.34;15624160;28;20012;-62
2021/01/27 04:50:29;;;;;;;1999.90;999.90;;;;;;;2.83;72.37;101000.47;15582878;28;20038;-62
2021/01/27 04:58:13;;;;;;;1999.90;999.90;;;;;;;2.91;72.50;100990.81;15611738;28;20057;-61
2021/01/27 05:05:50;;;;;;;1999.90;999.90;;;;;;;3.12;71.97;100994.38;15616116;28;20042;-61
2021/01/27 05:13:30;;;;;;;1999.90;999.90;;;;;;;3.15;72.04;100996.63;15576293;28;20042;-62
2021/01/27 05:21:03;;;;;;;1999.90;999.90;;;;;;;2.89;72.37;100988.31;15601017;28;20034;-62
2021/01/27 05:28:39;;;;;;;1999.90;999.90;;;;;;;3.03;72.32;100985.03;15585205;28;20411;-62
2021/01/27 05:36:15;;;;;;;1999.90;999.90;;;;;;;3.11;71.83;100981.69;15579340;28;20537;-62
2021/01/27 05:43:49;;;;;;;1999.90;999.90;;;;;;;3.12;71.98;100978.66;15586061;28;20050;-62
2021/01/27 05:51:31;;;;;;;1999.90;999.90;;;;;;;3.27;71.46;100977.84;15587846;28;20060;-62
2021/01/27 05:59:06;;;;;;;1999.90;999.90;;;;;;;3.06;71.77;100981.72;15618829;28;20068;-62
2021/01/27 06:06:53;;;;;;;1999.90;999.90;;;;;;;2.85;73.29;100981.72;15610436;22;20114;-61
2021/01/27 06:14:26;;;;;;;1999.90;999.90;;;;;;;3.26;72.11;100978.94;15547279;28;20076;-60
2021/01/27 06:22:23;;;;;;;1999.90;999.90;;;;;;;3.41;71.26;100973.38;15572536;28;20046;-61
2021/01/27 06:30:11;;;;;;;1999.90;999.90;;;;;;;3.45;71.18;100969.00;15579265;28;20049;-60
2021/01/27 06:37:59;;;;;;;1999.90;999.90;;;;;;;3.56;70.98;100972.56;15595954;28;20042;-61
2021/01/27 06:45:40;;;;;;;1999.90;999.90;;;;;;;3.52;71.27;100974.19;15581504;28;20049;-60
2021/01/27 06:53:41;;;;;;;1999.90;999.90;;;;;;;3.41;71.50;100970.63;15581218;28;20128;-59
2021/01/27 07:01:34;;;;;;;1999.90;999.90;;;;;;;3.47;71.02;100976.97;15614376;28;20501;-60
2021/01/27 07:09:54;;;;;;;1999.90;999.90;;;;;;;3.48;71.03;100976.69;15540383;28;20104;-59
2021/01/27 07:17:51;;;;;;;1999.90;999.90;;;;;;;3.47;70.99;100976.97;15553290;28;20038;-58
2021/01/27 07:25:40;;;;;;;1999.90;999.90;;;;;;;3.66;71.11;100988.25;15553700;28;20122;-57
2021/01/27 07:33:27;;;;;;;1999.90;999.90;;;;;;;3.69;71.05;100984.91;15554104;28;20077;-58
2021/01/27 07:41:05;;;;;;;1999.90;999.90;;;;;;;3.55;71.44;100972.84;15553946;28;20060;-58
2021/01/27 07:48:46;;;;;;;1999.90;999.90;;;;;;;3.75;70.80;100981.03;15553638;28;20449;-55
2021/01/27 07:56:20;;;;;;;1999.90;999.90;;;;;;;3.72;71.16;100976.06;15557643;28;20136;-59
2021/01/27 08:03:59;;;;;;;1999.90;999.90;;;;;;;3.72;71.04;100971.38;15547507;28;20054;-59
2021/01/27 08:11:33;;;;;;;1999.90;999.90;;;;;;;3.71;71.57;100969.72;15565112;28;20517;-58
2021/01/27 08:19:25;;;;;;;1999.90;999.90;;;;;;;3.96;70.56;100971.59;15565295;28;20081;-59
2021/01/27 08:26:56;;;;;;;1999.90;999.90;;;;;;;3.90;70.89;100974.63;15545803;28;20053;-58
2021/01/27 08:34:43;;;;;;;1999.90;999.90;;;;;;;4.25;70.15;100976.41;15562979;28;20096;-59
2021/01/27 08:42:26;;;;;;;1999.90;999.90;;;;;;;3.93;71.04;100961.09;15545885;28;20049;-60
2021/01/27 08:49:59;;;;;;;1999.90;999.90;;;;;;;4.26;69.75;100954.00;15563784;28;20466;-60
2021/01/27 08:57:32;;;;;;;;;;;;;;;4.32;69.81;100955.63;15562771;28;20038;-60
2021/01/27 09:05:07;;;;;;;1999.90;999.90;;;;;;;4.74;68.84;100942.38;15560937;28;20405;-60
2021/01/27 09:12:39;;;;;;;1999.90;999.90;;;;;;;5.12;67.60;100941.47;15543861;28;20085;-60
2021/01/27 09:20:19;;;;;;;1999.90;999.90;;;;;;;5.70;65.94;100937.81;15561480;28;20060;-60
2021/01/27 09:28:00;;;;;;;1999.90;999.90;;;;;;;7.50;61.73;100939.22;15556941;28;20041;-61
2021/01/27 09:35:32;;;;;;;1999.90;999.90;;;;;;;8.15;58.12;100943.72;15543361;28;20076;-61
2021/01/27 09:43:07;;;;;;;1999.90;999.90;;;;;;;9.26;55.06;100931.03;15560646;28;20057;-60
2021/01/27 09:50:41;;;;;;;1999.90;999.90;;;;;;;10.28;51.60;100933.75;15541753;28;20038;-61
2021/01/27 09:58:13;;;;;;;1999.90;999.90;;;;;;;10.97;49.87;100926.19;15542767;28;20129;-61
2021/01/27 10:05:47;;;;;;;1999.90;999.90;;;;;;;11.05;49.61;100918.16;15557765;28;20046;-60
2021/01/27 10:13:18;;;;;;;1999.90;999.90;;;;;;;12.18;47.89;100919.34;15538916;28;20099;-59
2021/01/27 10:21:00;;;;;;;1999.90;999.90;;;;;;;11.58;47.90;100912.06;15537733;28;20523;-61
2021/01/27 10:28:32;;;;;;;1999.90;999.90;;;;;;;12.48;45.94;100920.13;15555886;28;20080;-59
2021/01/27 10:36:29;;;;;;;1999.90;999.90;;;;;;;12.88;45.30;100916.81;15555199;28;20100;-61
2021/01/27 10:44:28;;;;;;;1999.90;999.90;;;;;;;12.57;45.56;100906.06;15555129;28;20404;-60
2021/01/27 10:52:05;;;;;;;1999.90;999.90;;;;;;;12.40;44.90;100907.84;15536549;28;20042;-57
2021/01/27 10:59:37;;;;;;;1999.90;999.90;;;;;;;14.22;41.69;100905.00;15536989;28;20052;-55
2021/01/27 11:07:10;;;;;;;1999.90;999.90;;;;;;;12.81;43.33;100908.97;15537776;28;20044;-58
2021/01/27 11:14:41;;;;;;;1999.90;999.90;;;;;;;12.44;43.96;100882.78;15536102;28;20045;-60
2021/01/27 11:22:14;;;;;;;1999.90;999.90;;;;;;;13.75;41.25;100886.66;15553851;28;20042;-58
2021/01/27 11:29:46;;;;;;;1999.90;999.90;;;;;;;15.02;39.52;100877.75;15557513;28;20037;-57
2021/01/27 11:37:18;;;;;;;1999.90;999.90;;;;;;;16.32;37.71;100885.41;15547165;28;20079;-57
2021/01/27 11:44:49;;;;;;;1999.90;999.90;;;;;;;15.77;37.33;100873.28;15564302;28;20073;-57
2021/01/27 11:52:22;;;;;;;1999.90;999.90;;;;;;;12.13;44.61;100864.41;15546489;28;20048;-58
2021/01/27 11:59:54;;;;;;;1999.90;999.90;;;;;;;11.37;46.98;100852.50;15565680;28;20077;-58
2021/01/27 12:07:27;;;;;;;1999.90;999.90;;;;;;;14.41;39.83;100854.66;15564449;28;20068;-55
2021/01/27 12:14:59;;;;;;;1999.90;999.90;;;;;;;14.49;39.78;100845.31;15547271;28;20064;-57
2021/01/27 12:22:31;;;;;;;1999.90;999.90;;;;;;;11.93;44.60;100839.22;15563755;28;20582;-57
2021/01/27 12:30:04;;;;;;;1999.90;999.90;;;;;;;15.57;37.43;100827.34;15545368;28;20057;-55
2021/01/27 12:37:38;;;;;;;1999.90;999.90;;;;;;;18.43;33.21;100825.94;15562527;28;20459;-57
2021/01/27 12:45:11;;;;;;;1999.90;999.90;;;;;;;18.20;32.73;100809.09;15544379;28;20338;-62
2021/01/27 12:52:44;;;;;;;1999.90;999.90;;;;;;;15.87;36.13;100811.63;15561972;28;20038;-56
2021/01/27 13:00:19;;;;;;;1999.90;999.90;;;;;;;16.94;35.22;100805.44;15543843;28;20038;-55
2021/01/27 13:07:52;;;;;;;1999.90;999.90;;;;;;;19.57;30.46;100805.41;15543686;28;20049;-57
2021/01/27 13:15:24;;;;;;;1999.90;999.90;;;;;;;17.62;33.08;100803.81;15560732;28;20049;-56
2021/01/27 13:22:56;;;;;;;1999.90;999.90;;;;;;;14.10;38.75;100794.41;15560216;28;20042;-56
2021/01/27 13:30:29;;;;;;;1999.90;999.90;;;;;;;11.87;43.15;100782.66;15559305;28;20041;-57
2021/01/27 13:38:02;;;;;;;1999.90;999.90;;;;;;;11.12;44.88;100779.63;15559213;28;20045;-58
2021/01/27 13:45:34;;;;;;;1999.90;999.90;;;;;;;11.85;43.91;100768.22;15559081;28;20057;-57
2021/01/27 13:53:07;;;;;;;1999.90;999.90;;;;;;;12.19;43.38;100757.91;15557565;28;20064;-59
2021/01/27 14:00:38;;;;;;;1999.90;999.90;;;;;;;12.58;42.50;100748.13;15558056;28;20099;-57
2021/01/27 14:08:11;;;;;;;1999.90;999.90;;;;;;;13.01;42.29;100736.44;15557772;28;20070;-57
2021/01/27 14:15:43;;;;;;;1999.90;999.90;;;;;;;9.20;49.11;100715.16;15559234;28;20045;-57
2021/01/27 14:23:15;;;;;;;1999.90;999.90;;;;;;;8.06;52.27;100701.84;15537775;28;20112;-60
2021/01/27 14:30:50;;;;;;;1999.90;999.90;;;;;;;8.06;52.37;100695.47;15560897;28;20116;-57
2021/01/27 14:38:23;;;;;;;1999.90;999.90;;;;;;;7.78;52.32;100690.00;15548903;28;20052;-59
2021/01/27 14:46:14;;;;;;;1999.90;999.90;;;;;;;7.67;51.63;100685.03;15555498;28;20049;-59
2021/01/27 14:53:47;;;;;;;1999.90;999.90;;;;;;;7.87;51.32;100695.66;15555199;28;20226;-56
2021/01/27 15:01:18;;;;;;;1999.90;999.90;;;;;;;7.77;50.89;100674.47;15553423;28;20054;-57
2021/01/27 15:08:51;;;;;;;1999.90;999.90;;;;;;;7.60;52.38;100679.06;15566112;28;20034;-56
2021/01/27 15:16:23;;;;;;;1999.90;999.90;;;;;;;7.07;53.71;100660.28;15566630;28;20057;-56
2021/01/27 15:23:56;;;;;;;1999.90;999.90;;;;;;;6.88;54.59;100668.78;15567320;28;20076;-59
2021/01/27 15:31:27;;;;;;;1999.90;999.90;;;;;;;6.63;56.20;100670.91;15566894;28;20563;-61
2021/01/27 15:39:01;;;;;;;1999.90;999.90;;;;;;;6.56;55.86;100681.56;15566572;28;20060;-58
2021/01/27 15:46:33;;;;;;;1999.90;999.90;;;;;;;6.33;56.92;100671.50;15566494;28;20529;-59
2021/01/27 15:54:05;;;;;;;1999.90;999.90;;;;;;;6.33;56.55;100674.28;15565637;28;20518;-54
2021/01/27 16:01:37;;;;;;;1999.90;999.90;;;;;;;6.42;56.60;100668.84;15568711;28;20046;-54
2021/01/27 16:09:10;;;;;;;1999.90;999.90;;;;;;;6.36;56.78;100668.97;15551418;28;20046;-56
2021/01/27 16:16:41;;;;;;;1999.90;999.90;;;;;;;6.19;57.05;100662.34;15571010;28;20049;-53
2021/01/27 16:24:16;;;;;;;1999.90;999.90;;;;;;;6.11;57.67;100677.72;15569842;28;20050;-58
2021/01/27 16:31:52;;;;;;;1999.90;999.90;;;;;;;6.09;57.40;100666.13;15561744;28;20042;-57
2021/01/27 16:39:26;;;;;;;1999.90;999.90;;;;;;;6.03;57.17;100661.78;15560869;28;20099;-62
2021/01/27 16:47:00;;;;;;;1999.90;999.90;;;;;;;5.66;57.97;100646.06;15562486;28;20460;-57
2021/01/27 16:54:33;;;;;;;1999.90;999.90;;;;;;;5.64;57.72;100662.16;15561605;28;20042;-56
2021/01/27 17:02:05;;;;;;;1999.90;999.90;;;;;;;5.82;57.34;100643.84;15560570;28;20053;-56
2021/01/27 17:09:39;;;;;;;1999.90;999.90;;;;;;;5.71;57.40;100627.41;15560446;28;20088;-59
2021/01/27 17:17:11;;;;;;;1999.90;999.90;;;;;;;5.68;57.50;100633.56;15560548;28;20111;-57
2021/01/27 17:24:44;;;;;;;1999.90;999.90;;;;;;;5.75;57.20;100647.03;15557638;28;20074;-57
2021/01/27 17:32:16;;;;;;;1999.90;999.90;;;;;;;5.69;57.78;100654.59;15559579;28;20045;-56
2021/01/27 17:39:48;;;;;;;1999.90;999.90;;;;;;;5.84;57.18;100639.69;15559196;28;20074;-58
2021/01/27 17:47:21;;;;;;;1999.90;999.90;;;;;;;5.58;57.61;100622.66;15557605;28;20499;-61
2021/01/27 17:54:53;;;;;;;1999.90;999.90;;;;;;;5.68;57.61;100618.91;15558520;28;20073;-56
2021/01/27 18:02:24;;;;;;;1999.90;999.90;;;;;;;5.57;58.37;100612.72;15592743;22;20529;-53
2021/01/27 18:09:57;;;;;;;1999.90;999.90;;;;;;;5.43;58.30;100607.13;15614113;28;20037;-56
2021/01/27 18:17:28;;;;;;;1999.90;999.90;;;;;;;5.62;58.30;100597.94;15602606;28;20045;-53
2021/01/27 18:25:01;;;;;;;1999.90;999.90;;;;;;;5.16;59.16;100588.44;15613035;28;20068;-55
2021/01/27 18:32:33;;;;;;;1999.90;999.90;;;;;;;5.33;58.99;100576.84;15612636;28;20041;-54
2021/01/27 18:40:09;;;;;;;1999.90;999.90;;;;;;;5.20;59.63;100564.59;15611910;28;20112;-53
2021/01/27 18:47:41;;;;;;;1999.90;999.90;;;;;;;5.13;59.78;100555.88;15612193;28;20046;-52
2021/01/27 18:55:13;;;;;;;1999.90;999.90;;;;;;;5.01;60.26;100541.69;15609609;28;20134;-51
2021/01/27 19:02:45;;;;;;;1999.90;999.90;;;;;;;4.85;60.47;100549.38;15611793;28;20107;-56
2021/01/27 19:10:22;;;;;;;1999.90;999.90;;;;;;;5.12;60.36;100545.94;15611679;28;20033;-51
2021/01/27 19:17:54;;;;;;;1999.90;999.90;;;;;;;5.01;60.05;100533.38;15611510;28;20405;-55
2021/01/27 19:25:29;;;;;;;1999.90;999.90;;;;;;;5.12;60.15;100526.56;15611499;28;20482;-54
2021/01/27 19:33:01;;;;;;;1999.90;999.90;;;;;;;4.85;60.82;100527.25;15613594;28;20120;-58
2021/01/27 19:40:34;;;;;;;1999.90;999.90;;;;;;;4.89;61.01;100525.53;15606240;28;20570;-52
2021/01/27 19:48:08;;;;;;;1999.90;999.90;;;;;;;4.83;61.65;100525.91;15612204;28;20116;-56
2021/01/27 19:55:43;;;;;;;1999.90;999.90;;;;;;;4.65;62.17;100502.69;15622269;28;20099;-55
2021/01/27 20:03:15;;;;;;;1999.90;999.90;;;;;;;4.50;63.37;100509.25;15622156;28;20053;-53
2021/01/27 20:10:49;;;;;;;1999.90;999.90;;;;;;;4.94;62.12;100494.22;15620227;28;20409;-54
2021/01/27 20:18:24;;;;;;;1999.90;999.90;;;;;;;4.74;62.16;100486.25;15622259;28;20045;-55
2021/01/27 20:25:57;;;;;;;1999.90;999.90;;;;;;;4.91;61.87;100492.88;15619830;28;20052;-56
2021/01/27 20:33:32;;;;;;;1999.90;999.90;;;;;;;5.06;61.65;100488.22;15614861;28;20045;-54
2021/01/27 20:41:07;;;;;;;1999.90;999.90;;;;;;;4.90;62.14;100473.84;15618801;28;20037;-56
2021/01/27 20:48:40;;;;;;;1999.90;999.90;;;;;;;4.73;62.84;100468.84;15617281;28;20466;-54
2021/01/27 20:56:14;;;;;;;1999.90;999.90;;;;;;;4.90;62.55;100466.38;15615063;28;20041;-57
2021/01/27 21:03:46;;;;;;;1999.90;999.90;;;;;;;4.71;63.35;100459.22;15615218;28;20132;-57
2021/01/27 21:11:19;;;;;;;1999.90;999.90;;;;;;;4.60;64.40;100445.53;15616344;28;20041;-52
2021/01/27 21:18:51;;;;;;;1999.90;999.90;;;;;;;4.84;63.34;100436.31;15617586;28;20076;-56
2021/01/27 21:26:24;;;;;;;1999.90;999.90;;;;;;;4.91;63.65;100429.28;15616435;28;20091;-54
2021/01/27 21:33:56;;;;;;;1999.90;999.90;;;;;;;5.05;63.17;100429.31;15577542;28;20030;-56
2021/01/27 21:41:28;;;;;;;1999.90;999.90;;;;;;;4.77;64.34;100430.34;15615207;28;20211;-55
2021/01/27 21:49:00;;;;;;;1999.90;999.90;;;;;;;4.70;64.72;100432.69;15613376;28;20049;-56
2021/01/27 21:56:33;;;;;;;1999.90;999.90;;;;;;;4.60;65.24;100442.78;15614384;28;20045;-52
2021/01/27 22:04:04;;;;;;;1999.90;999.90;;;;;;;4.70;65.29;100447.34;15614183;28;20111;-57
2021/01/27 22:11:37;;;;;;;1999.90;999.90;;;;;;;4.84;65.33;100444.63;15614460;28;20045;-56
2021/01/27 22:19:12;;;;;;;1999.90;999.90;;;;;;;4.92;65.34;100436.47;15596484;28;20045;-51
2021/01/27 22:26:44;;;;;;;1999.90;999.90;;;;;;;4.78;65.93;100429.22;15612424;28;20060;-51
2021/01/27 22:34:17;;;;;;;1999.90;999.90;;;;;;;4.41;68.51;100421.81;15611739;28;20462;-53
2021/01/27 22:41:49;;;;;;;1999.90;999.90;;;;;;;4.23;69.84;100415.97;15612361;28;20049;-52
2021/01/27 22:49:21;;;;;;;1999.90;999.90;;;;;;;4.17;70.12;100408.88;15612344;28;20128;-51
2021/01/27 22:56:53;;;;;;;1999.90;999.90;;;;;;;4.46;69.45;100419.78;15611052;28;20091;-50
2021/01/27 23:04:25;;;;;;;1999.90;999.90;;;;;;;4.35;70.24;100410.81;15610671;28;20445;-54
2021/01/27 23:11:57;;;;;;;1999.90;999.90;;;;;;;4.40;69.68;100401.66;15611572;28;20429;-50
2021/01/27 23:19:29;;;;;;;1999.90;999.90;;;;;;;4.33;70.79;100382.66;15610180;28;20053;-51
2021/01/27 23:27:01;;;;;;;1999.90;999.90;;;;;;;4.21;72.18;100370.44;15616972;28;20107;-52
2021/01/27 23:34:33;;;;;;;1999.90;999.90;;;;;;;4.08;72.48;100346.34;15623663;28;20050;-51
2021/01/27 23:42:05;;;;;;;1999.90;999.90;;;;;;;4.34;71.58;100334.59;15622030;28;20444;-55
2021/01/27 23:49:37;;;;;;;1999.90;999.90;;;;;;;4.30;72.59;100332.75;15621247;28;20461;-54
2021/01/27 23:57:09;;;;;;;1999.90;999.90;;;;;;;4.18;72.86;100330.44;15622559;28;20041;-50
